createdAt,value
2019-01-05T00:00:34.386Z,4.73
2019-01-05T00:01:34.393Z,4.77
2019-01-05T00:02:34.416Z,4.74
2019-01-05T00:03:34.397Z,4.73
2019-01-05T00:04:34.341Z,4.71
2019-01-05T00:05:34.329Z,4.71
2019-01-05T00:06:34.321Z,4.67
2019-01-05T00:07:34.317Z,4.63
2019-01-05T00:08:34.300Z,4.70
2019-01-05T00:09:34.289Z,4.80
2019-01-05T00:10:34.282Z,4.68
2019-01-05T00:11:34.274Z,4.73
2019-01-05T00:12:34.260Z,4.75
2019-01-05T00:13:34.250Z,4.66
2019-01-05T00:14:34.232Z,4.70
2019-01-05T00:15:34.227Z,4.84
2019-01-05T00:16:34.216Z,4.71
2019-01-05T00:17:34.206Z,4.75
2019-01-05T00:18:34.192Z,4.70
2019-01-05T00:19:34.195Z,4.73
2019-01-05T00:20:34.171Z,4.70
2019-01-05T00:21:34.161Z,4.78
2019-01-05T00:22:34.154Z,4.86
2019-01-05T00:23:34.148Z,4.82
2019-01-05T00:24:34.128Z,4.75
2019-01-05T00:25:34.130Z,4.77
2019-01-05T00:26:34.147Z,4.80
2019-01-05T00:27:34.098Z,4.77
2019-01-05T00:28:34.087Z,4.77
2019-01-05T00:29:34.082Z,4.86
2019-01-05T00:30:34.068Z,4.75
2019-01-05T00:31:34.066Z,4.78
2019-01-05T00:32:34.041Z,4.77
2019-01-05T00:33:34.034Z,4.80
2019-01-05T00:34:34.024Z,4.78
2019-01-05T00:35:34.009Z,4.74
2019-01-05T00:36:34.016Z,4.73
2019-01-05T00:37:33.987Z,4.80
2019-01-05T00:38:33.980Z,4.87
2019-01-05T00:39:33.969Z,4.74
2019-01-05T00:40:33.965Z,4.75
2019-01-05T00:41:33.946Z,4.77
2019-01-05T00:42:33.946Z,4.82
2019-01-05T00:43:33.918Z,4.74
2019-01-05T00:44:33.915Z,4.75
2019-01-05T00:45:33.902Z,4.74
2019-01-05T00:46:33.903Z,4.86
2019-01-05T00:47:33.882Z,4.90
2019-01-05T00:48:33.876Z,4.89
2019-01-05T00:49:33.859Z,4.90
2019-01-05T00:50:33.849Z,4.90
2019-01-05T00:51:33.845Z,4.84
2019-01-05T00:52:33.833Z,4.82
2019-01-05T00:53:33.817Z,4.80
2019-01-05T00:54:33.820Z,4.78
2019-01-05T00:55:33.797Z,4.86
2019-01-05T00:56:33.783Z,4.90
2019-01-05T00:57:33.777Z,4.90
2019-01-05T00:58:33.772Z,4.82
2019-01-05T00:59:33.758Z,4.89
2019-01-05T01:00:33.755Z,4.94
2019-01-05T01:01:33.733Z,4.93
2019-01-05T01:02:33.727Z,4.94
2019-01-05T01:03:33.710Z,4.87
2019-01-05T01:04:33.712Z,4.86
2019-01-05T01:05:33.693Z,4.93
2019-01-05T01:06:33.682Z,4.84
2019-01-05T01:07:33.668Z,4.86
2019-01-05T01:08:33.660Z,4.99
2019-01-05T01:09:33.646Z,4.89
2019-01-05T01:10:33.647Z,4.92
2019-01-05T01:11:33.627Z,4.94
2019-01-05T01:12:33.629Z,4.93
2019-01-05T01:13:33.602Z,4.89
2019-01-05T01:14:33.592Z,4.92
2019-01-05T01:15:33.587Z,4.90
2019-01-05T01:16:33.573Z,4.97
2019-01-05T01:17:33.568Z,4.93
2019-01-05T01:18:33.562Z,5.02
2019-01-05T01:19:33.537Z,4.96
2019-01-05T01:20:33.529Z,4.97
2019-01-05T01:21:33.518Z,4.87
2019-01-05T01:22:33.508Z,4.96
2019-01-05T01:23:33.494Z,4.92
2019-01-05T01:24:33.493Z,4.97
2019-01-05T01:25:33.477Z,4.87
2019-01-05T01:26:33.468Z,4.92
2019-01-05T01:27:33.461Z,4.93
2019-01-05T01:28:33.445Z,4.97
2019-01-05T01:29:33.430Z,4.94
2019-01-05T01:30:33.424Z,5.04
2019-01-05T01:31:33.411Z,5.00
2019-01-05T01:32:33.401Z,5.07
2019-01-05T01:33:33.392Z,5.04
2019-01-05T01:34:33.383Z,5.05
2019-01-05T01:35:33.372Z,5.07
2019-01-05T01:36:33.363Z,5.05
2019-01-05T01:37:33.345Z,5.05
2019-01-05T01:38:33.337Z,5.08
2019-01-05T01:39:33.324Z,5.05
2019-01-05T01:40:33.317Z,5.04
2019-01-05T01:41:33.305Z,5.04
2019-01-05T01:42:33.293Z,5.05
2019-01-05T01:43:33.288Z,5.07
2019-01-05T01:44:33.278Z,5.07
2019-01-05T01:45:33.292Z,5.17
2019-01-05T01:46:33.253Z,5.08
2019-01-05T01:47:33.236Z,5.11
2019-01-05T01:48:33.229Z,5.11
2019-01-05T01:49:33.218Z,5.04
2019-01-05T01:50:33.206Z,5.08
2019-01-05T01:51:33.204Z,5.14
2019-01-05T01:52:33.188Z,5.12
2019-01-05T01:53:33.175Z,5.10
2019-01-05T01:54:33.167Z,5.11
2019-01-05T01:55:33.154Z,5.20
2019-01-05T01:56:33.142Z,5.20
2019-01-05T01:57:33.136Z,5.14
2019-01-05T01:58:33.123Z,5.20
2019-01-05T01:59:33.111Z,5.17
2019-01-05T02:00:33.106Z,5.26
2019-01-05T02:01:33.089Z,5.21
2019-01-05T02:02:33.086Z,5.23
2019-01-05T02:03:33.071Z,5.14
2019-01-05T02:04:33.059Z,5.21
2019-01-05T02:05:33.047Z,5.15
2019-01-05T02:06:33.041Z,5.18
2019-01-05T02:07:33.025Z,5.17
2019-01-05T02:08:33.016Z,5.20
2019-01-05T02:09:33.013Z,5.20
2019-01-05T02:10:32.990Z,5.29
2019-01-05T02:11:33.012Z,5.20
2019-01-05T02:12:32.973Z,5.26
2019-01-05T02:13:32.960Z,5.26
2019-01-05T02:14:32.968Z,5.26
2019-01-05T02:15:32.937Z,5.30
2019-01-05T02:16:32.927Z,5.25
2019-01-05T02:17:32.918Z,5.26
2019-01-05T02:18:32.956Z,5.26
2019-01-05T02:19:32.895Z,5.23
2019-01-05T02:20:32.887Z,5.20
2019-01-05T02:21:32.871Z,5.26
2019-01-05T02:22:32.861Z,5.33
2019-01-05T02:23:32.863Z,5.30
2019-01-05T02:24:32.849Z,5.35
2019-01-05T02:25:32.830Z,5.30
2019-01-05T02:26:32.828Z,5.32
2019-01-05T02:27:32.810Z,5.33
2019-01-05T02:28:32.800Z,5.36
2019-01-05T02:29:32.786Z,5.41
2019-01-05T02:30:32.781Z,5.30
2019-01-05T02:31:32.776Z,5.32
2019-01-05T02:32:32.759Z,5.39
2019-01-05T02:33:32.745Z,5.30
2019-01-05T02:34:32.738Z,5.25
2019-01-05T02:35:32.723Z,5.28
2019-01-05T02:36:32.710Z,5.39
2019-01-05T02:37:32.705Z,5.38
2019-01-05T02:38:32.698Z,5.39
2019-01-05T02:39:32.681Z,5.35
2019-01-05T02:40:32.667Z,5.35
2019-01-05T02:41:32.668Z,5.39
2019-01-05T02:42:32.655Z,5.36
2019-01-05T02:43:32.643Z,5.35
2019-01-05T02:44:32.622Z,5.30
2019-01-05T02:45:32.617Z,5.35
2019-01-05T02:46:32.602Z,5.41
2019-01-05T02:47:32.593Z,5.38
2019-01-05T02:48:32.580Z,5.36
2019-01-05T02:49:32.569Z,5.38
2019-01-05T02:50:32.553Z,5.36
2019-01-05T02:51:32.546Z,5.32
2019-01-05T02:52:32.532Z,5.33
2019-01-05T02:53:32.520Z,5.41
2019-01-05T02:54:32.510Z,5.46
2019-01-05T02:55:32.504Z,5.50
2019-01-05T02:56:32.488Z,5.41
2019-01-05T02:57:32.486Z,5.41
2019-01-05T02:58:32.468Z,5.46
2019-01-05T02:59:32.466Z,5.44
2019-01-05T03:00:32.459Z,5.50
2019-01-05T03:01:32.442Z,5.44
2019-01-05T03:02:32.421Z,5.51
2019-01-05T03:03:32.415Z,5.38
2019-01-05T03:04:32.404Z,5.50
2019-01-05T03:05:32.391Z,5.47
2019-01-05T03:06:32.385Z,5.53
2019-01-05T03:07:32.370Z,5.43
2019-01-05T03:08:32.357Z,5.53
2019-01-05T03:09:32.355Z,5.51
2019-01-05T03:10:32.334Z,5.54
2019-01-05T03:11:32.332Z,5.53
2019-01-05T03:12:32.316Z,5.47
2019-01-05T03:13:32.304Z,5.54
2019-01-05T03:14:32.295Z,5.56
2019-01-05T03:15:32.285Z,5.50
2019-01-05T03:16:32.271Z,5.51
2019-01-05T03:17:32.262Z,5.51
2019-01-05T03:18:32.254Z,5.56
2019-01-05T03:19:32.238Z,5.48
2019-01-05T03:20:32.230Z,5.53
2019-01-05T03:21:32.217Z,5.53
2019-01-05T03:22:32.210Z,5.51
2019-01-05T03:23:32.202Z,5.53
2019-01-05T03:24:32.199Z,5.57
2019-01-05T03:25:32.173Z,5.50
2019-01-05T03:26:32.168Z,5.47
2019-01-05T03:27:32.150Z,5.48
2019-01-05T03:28:32.152Z,5.53
2019-01-05T03:29:32.128Z,5.51
2019-01-05T03:30:32.755Z,5.64
2019-01-05T03:31:32.121Z,5.59
2019-01-05T03:32:32.108Z,5.65
2019-01-05T03:33:32.088Z,5.62
2019-01-05T03:34:32.082Z,5.54
2019-01-05T03:35:32.064Z,5.61
2019-01-05T03:36:32.054Z,5.51
2019-01-05T03:37:32.049Z,5.53
2019-01-05T03:38:32.042Z,5.57
2019-01-05T03:39:32.020Z,5.59
2019-01-05T03:40:32.012Z,5.57
2019-01-05T03:41:32.014Z,5.59
2019-01-05T03:42:32.003Z,5.57
2019-01-05T03:43:31.978Z,5.61
2019-01-05T03:44:31.968Z,5.65
2019-01-05T03:45:31.955Z,5.66
2019-01-05T03:46:31.948Z,5.71
2019-01-05T03:47:31.931Z,5.68
2019-01-05T03:48:31.960Z,5.65
2019-01-05T03:49:31.917Z,5.71
2019-01-05T03:50:31.901Z,5.65
2019-01-05T03:51:31.893Z,5.62
2019-01-05T03:52:31.879Z,5.71
2019-01-05T03:53:31.866Z,5.73
2019-01-05T03:54:31.857Z,5.72
2019-01-05T03:55:31.849Z,5.72
2019-01-05T03:56:31.834Z,5.79
2019-01-05T03:57:31.824Z,5.73
2019-01-05T03:58:31.815Z,5.75
2019-01-05T03:59:31.804Z,5.76
2019-01-05T04:00:31.792Z,5.79
2019-01-05T04:01:31.795Z,5.76
2019-01-05T04:02:31.775Z,5.83
2019-01-05T04:03:31.761Z,5.83
2019-01-05T04:04:31.747Z,5.87
2019-01-05T04:05:31.740Z,5.86
2019-01-05T04:06:31.725Z,5.83
2019-01-05T04:07:31.723Z,5.89
2019-01-05T04:08:31.707Z,5.82
2019-01-05T04:09:31.698Z,5.90
2019-01-05T04:10:31.686Z,5.89
2019-01-05T04:11:31.676Z,5.84
2019-01-05T04:12:32.007Z,5.83
2019-01-05T04:13:31.649Z,5.82
2019-01-05T04:14:31.641Z,5.84
2019-01-05T04:15:31.629Z,5.80
2019-01-05T04:16:31.620Z,5.84
2019-01-05T04:17:31.606Z,5.84
2019-01-05T04:18:31.599Z,5.83
2019-01-05T04:19:31.592Z,5.84
2019-01-05T04:20:31.573Z,5.87
2019-01-05T04:21:31.564Z,5.84
2019-01-05T04:22:31.561Z,5.87
2019-01-05T04:23:31.558Z,5.86
2019-01-05T04:24:31.538Z,5.83
2019-01-05T04:25:31.554Z,5.83
2019-01-05T04:26:31.507Z,5.90
2019-01-05T04:27:31.503Z,5.91
2019-01-05T04:28:31.490Z,5.89
2019-01-05T04:29:31.475Z,5.89
2019-01-05T04:30:31.465Z,5.90
2019-01-05T04:31:31.460Z,5.80
2019-01-05T04:32:31.442Z,5.84
2019-01-05T04:33:31.433Z,5.87
2019-01-05T04:34:31.427Z,5.94
2019-01-05T04:35:31.411Z,5.89
2019-01-05T04:36:31.400Z,5.98
2019-01-05T04:37:31.391Z,5.99
2019-01-05T04:38:31.384Z,5.91
2019-01-05T04:39:31.367Z,5.94
2019-01-05T04:40:31.361Z,5.98
2019-01-05T04:41:31.345Z,5.90
2019-01-05T04:42:31.341Z,5.94
2019-01-05T04:43:31.326Z,5.90
2019-01-05T04:44:31.315Z,5.94
2019-01-05T04:45:31.304Z,5.93
2019-01-05T04:46:31.305Z,5.93
2019-01-05T04:47:31.281Z,5.98
2019-01-05T04:48:31.277Z,5.93
2019-01-05T04:49:31.261Z,5.97
2019-01-05T04:50:31.246Z,5.97
2019-01-05T04:51:31.243Z,5.98
2019-01-05T04:52:31.226Z,5.99
2019-01-05T04:53:31.214Z,5.99
2019-01-05T04:54:31.206Z,6.01
2019-01-05T04:55:31.192Z,6.02
2019-01-05T04:56:31.183Z,6.04
2019-01-05T04:57:31.174Z,5.99
2019-01-05T04:58:31.161Z,5.99
2019-01-05T04:59:31.148Z,6.01
2019-01-05T05:00:31.137Z,5.98
2019-01-05T05:01:31.126Z,6.01
2019-01-05T05:02:31.117Z,6.04
2019-01-05T05:03:31.108Z,6.07
2019-01-05T05:04:31.095Z,6.04
2019-01-05T05:05:31.082Z,6.11
2019-01-05T05:06:31.071Z,6.07
2019-01-05T05:07:31.063Z,6.07
2019-01-05T05:08:31.051Z,6.07
2019-01-05T05:09:31.060Z,6.02
2019-01-05T05:10:31.031Z,6.14
2019-01-05T05:11:31.021Z,6.12
2019-01-05T05:12:31.007Z,6.08
2019-01-05T05:13:31.008Z,6.11
2019-01-05T05:14:30.991Z,6.17
2019-01-05T05:15:30.990Z,6.20
2019-01-05T05:16:30.977Z,6.14
2019-01-05T05:17:30.950Z,6.07
2019-01-05T05:18:30.984Z,6.16
2019-01-05T05:19:30.930Z,6.16
2019-01-05T05:20:30.923Z,6.14
2019-01-05T05:21:30.921Z,6.19
2019-01-05T05:22:30.901Z,6.09
2019-01-05T05:23:30.886Z,6.14
2019-01-05T05:24:30.878Z,6.20
2019-01-05T05:25:30.865Z,6.24
2019-01-05T05:26:30.857Z,6.08
2019-01-05T05:27:30.843Z,6.14
2019-01-05T05:28:30.838Z,6.14
2019-01-05T05:29:30.819Z,6.19
2019-01-05T05:30:30.810Z,6.16
2019-01-05T05:31:30.799Z,6.14
2019-01-05T05:32:30.790Z,6.16
2019-01-05T05:33:30.777Z,6.16
2019-01-05T05:34:30.772Z,6.14
2019-01-05T05:35:30.755Z,6.17
2019-01-05T05:36:30.745Z,6.16
2019-01-05T05:37:30.734Z,6.17
2019-01-05T05:38:30.739Z,6.20
2019-01-05T05:39:30.713Z,6.17
2019-01-05T05:40:30.704Z,6.20
2019-01-05T05:41:30.690Z,6.16
2019-01-05T05:42:30.690Z,6.26
2019-01-05T05:43:30.679Z,6.19
2019-01-05T05:44:30.667Z,6.14
2019-01-05T05:45:30.647Z,6.17
2019-01-05T05:46:30.647Z,6.22
2019-01-05T05:47:30.625Z,6.14
2019-01-05T05:48:30.614Z,6.09
2019-01-05T05:49:30.607Z,6.19
2019-01-05T05:50:30.590Z,6.19
2019-01-05T05:51:30.584Z,6.24
2019-01-05T05:52:30.571Z,6.19
2019-01-05T05:53:30.565Z,6.17
2019-01-05T05:54:30.550Z,6.22
2019-01-05T05:55:30.538Z,6.16
2019-01-05T05:56:30.528Z,6.26
2019-01-05T05:57:30.516Z,6.20
2019-01-05T05:58:30.504Z,6.22
2019-01-05T05:59:30.495Z,6.31
2019-01-05T06:00:31.840Z,6.20
2019-01-05T06:01:30.473Z,6.24
2019-01-05T06:02:30.462Z,6.22
2019-01-05T06:03:30.450Z,6.33
2019-01-05T06:04:30.441Z,6.31
2019-01-05T06:05:30.427Z,6.28
2019-01-05T06:06:30.416Z,6.33
2019-01-05T06:07:30.410Z,6.27
2019-01-05T06:08:30.398Z,6.22
2019-01-05T06:09:30.386Z,6.31
2019-01-05T06:10:30.376Z,6.27
2019-01-05T06:11:30.365Z,6.30
2019-01-05T06:12:30.354Z,6.31
2019-01-05T06:13:30.348Z,6.28
2019-01-05T06:14:30.688Z,6.27
2019-01-05T06:15:30.320Z,6.31
2019-01-05T06:16:30.313Z,6.38
2019-01-05T06:17:30.297Z,6.33
2019-01-05T06:18:30.287Z,6.38
2019-01-05T06:19:30.284Z,6.33
2019-01-05T06:20:30.267Z,6.38
2019-01-05T06:21:30.259Z,6.33
2019-01-05T06:22:30.245Z,6.39
2019-01-05T06:23:30.233Z,6.38
2019-01-05T06:24:30.223Z,6.33
2019-01-05T06:25:30.214Z,6.36
2019-01-05T06:26:30.198Z,6.38
2019-01-05T06:27:30.187Z,6.39
2019-01-05T06:28:30.181Z,6.38
2019-01-05T06:29:30.165Z,6.36
2019-01-05T06:30:30.157Z,6.39
2019-01-05T06:31:30.144Z,6.36
2019-01-05T06:32:30.154Z,6.35
2019-01-05T06:33:30.126Z,6.39
2019-01-05T06:34:30.114Z,6.35
2019-01-05T06:35:30.102Z,6.35
2019-01-05T06:36:30.091Z,6.38
2019-01-05T06:37:30.081Z,6.42
2019-01-05T06:38:30.069Z,6.44
2019-01-05T06:39:30.058Z,6.41
2019-01-05T06:40:30.052Z,6.41
2019-01-05T06:41:30.036Z,6.38
2019-01-05T06:42:30.034Z,6.41
2019-01-05T06:43:30.014Z,6.44
2019-01-05T06:44:30.010Z,6.48
2019-01-05T06:45:29.992Z,6.44
2019-01-05T06:46:29.984Z,6.35
2019-01-05T06:47:29.970Z,6.41
2019-01-05T06:48:29.978Z,6.48
2019-01-05T06:49:29.951Z,6.48
2019-01-05T06:50:29.944Z,6.39
2019-01-05T06:51:29.926Z,6.46
2019-01-05T06:52:29.919Z,6.42
2019-01-05T06:53:29.907Z,6.42
2019-01-05T06:54:29.896Z,6.42
2019-01-05T06:55:29.888Z,6.41
2019-01-05T06:56:29.874Z,6.46
2019-01-05T06:57:29.859Z,6.48
2019-01-05T06:58:29.849Z,6.57
2019-01-05T06:59:29.837Z,6.52
2019-01-05T07:00:29.827Z,6.56
2019-01-05T07:01:29.819Z,6.52
2019-01-05T07:02:29.807Z,6.48
2019-01-05T07:03:29.795Z,6.56
2019-01-05T07:04:29.785Z,6.48
2019-01-05T07:05:29.780Z,6.56
2019-01-05T07:06:29.764Z,6.56
2019-01-05T07:07:29.758Z,6.48
2019-01-05T07:08:29.740Z,6.46
2019-01-05T07:09:29.730Z,6.51
2019-01-05T07:10:29.722Z,6.51
2019-01-05T07:11:29.721Z,6.48
2019-01-05T07:12:29.697Z,6.48
2019-01-05T07:13:29.687Z,6.52
2019-01-05T07:14:29.676Z,6.54
2019-01-05T07:15:29.666Z,6.52
2019-01-05T07:16:29.654Z,6.49
2019-01-05T07:17:29.644Z,6.48
2019-01-05T07:18:29.637Z,6.46
2019-01-05T07:19:29.625Z,6.52
2019-01-05T07:20:29.612Z,6.54
2019-01-05T07:21:29.599Z,6.49
2019-01-05T07:22:29.595Z,6.49
2019-01-05T07:23:29.577Z,6.60
2019-01-05T07:24:29.569Z,6.48
2019-01-05T07:25:29.558Z,6.48
2019-01-05T07:26:29.545Z,6.48
2019-01-05T07:27:29.537Z,6.48
2019-01-05T07:28:29.536Z,6.45
2019-01-05T07:29:29.513Z,6.46
2019-01-05T07:30:29.508Z,6.51
2019-01-05T07:31:29.489Z,6.52
2019-01-05T07:32:29.481Z,6.57
2019-01-05T07:33:29.474Z,6.54
2019-01-05T07:34:29.460Z,6.54
2019-01-05T07:35:29.448Z,6.59
2019-01-05T07:36:29.438Z,6.59
2019-01-05T07:37:29.424Z,6.66
2019-01-05T07:38:29.416Z,6.56
2019-01-05T07:39:29.405Z,6.56
2019-01-05T07:40:29.395Z,6.62
2019-01-05T07:41:29.384Z,6.60
2019-01-05T07:42:29.373Z,6.59
2019-01-05T07:43:29.359Z,6.63
2019-01-05T07:44:29.354Z,6.60
2019-01-05T07:45:29.340Z,6.60
2019-01-05T07:46:29.341Z,6.54
2019-01-05T07:47:29.322Z,6.59
2019-01-05T07:48:29.317Z,6.66
2019-01-05T07:49:29.299Z,6.54
2019-01-05T07:50:29.288Z,6.64
2019-01-05T07:51:29.297Z,6.54
2019-01-05T07:52:29.265Z,6.62
2019-01-05T07:53:29.254Z,6.69
2019-01-05T07:54:29.251Z,6.63
2019-01-05T07:55:29.227Z,6.62
2019-01-05T07:56:29.229Z,6.56
2019-01-05T07:57:29.206Z,6.62
2019-01-05T07:58:29.195Z,6.64
2019-01-05T07:59:29.194Z,6.59
2019-01-05T08:00:29.176Z,6.62
2019-01-05T08:01:29.586Z,6.63
2019-01-05T08:02:29.536Z,6.64
2019-01-05T08:03:29.330Z,6.57
2019-01-05T08:05:25.292Z,6.56
2019-01-05T08:05:30.443Z,6.51
2019-01-05T08:06:29.358Z,6.59
2019-01-05T08:07:29.102Z,6.60
2019-01-05T08:08:29.445Z,6.54
2019-01-05T08:09:29.078Z,6.63
2019-01-05T08:10:30.417Z,6.56
2019-01-05T08:11:29.284Z,6.59
2019-01-05T08:12:29.405Z,6.62
2019-01-05T08:13:29.063Z,6.69
2019-01-05T08:14:29.029Z,6.59
2019-01-05T08:15:29.016Z,6.62
2019-01-05T08:16:29.005Z,6.63
2019-01-05T08:17:28.996Z,6.66
2019-01-05T08:18:28.981Z,6.69
2019-01-05T08:19:28.967Z,6.67
2019-01-05T08:20:28.959Z,6.67
2019-01-05T08:21:28.946Z,6.67
2019-01-05T08:22:28.935Z,6.62
2019-01-05T08:23:28.923Z,6.57
2019-01-05T08:24:28.913Z,6.67
2019-01-05T08:25:28.899Z,6.62
2019-01-05T08:26:28.890Z,6.62
2019-01-05T08:27:28.881Z,6.66
2019-01-05T08:28:28.867Z,6.62
2019-01-05T08:29:28.868Z,6.63
2019-01-05T08:30:28.847Z,6.69
2019-01-05T08:31:28.840Z,6.69
2019-01-05T08:32:28.826Z,6.63
2019-01-05T08:33:28.815Z,6.62
2019-01-05T08:34:28.805Z,6.64
2019-01-05T08:35:28.797Z,6.67
2019-01-05T08:36:28.783Z,6.64
2019-01-05T08:37:28.770Z,6.77
2019-01-05T08:38:28.761Z,6.66
2019-01-05T08:39:28.753Z,6.67
2019-01-05T08:40:28.748Z,6.63
2019-01-05T08:41:28.729Z,6.74
2019-01-05T08:42:28.717Z,6.75
2019-01-05T08:43:28.708Z,6.75
2019-01-05T08:44:28.698Z,6.74
2019-01-05T08:45:28.693Z,6.79
2019-01-05T08:46:28.678Z,6.79
2019-01-05T08:47:28.664Z,6.69
2019-01-05T08:48:28.655Z,6.79
2019-01-05T08:49:28.642Z,6.75
2019-01-05T08:50:29.492Z,6.84
2019-01-05T08:51:28.621Z,6.84
2019-01-05T08:52:29.885Z,6.79
2019-01-05T08:53:28.598Z,6.78
2019-01-05T08:54:28.586Z,6.77
2019-01-05T08:55:28.577Z,6.79
2019-01-05T08:56:28.567Z,6.81
2019-01-05T08:57:28.557Z,6.84
2019-01-05T08:58:28.562Z,6.77
2019-01-05T08:59:28.537Z,6.77
2019-01-05T09:00:29.086Z,6.82
2019-01-05T09:01:28.517Z,6.84
2019-01-05T09:02:28.661Z,6.84
2019-01-05T09:03:28.495Z,6.88
2019-01-05T09:04:28.642Z,6.87
2019-01-05T09:05:28.471Z,6.82
2019-01-05T09:06:28.458Z,6.87
2019-01-05T09:07:28.445Z,6.85
2019-01-05T09:08:28.436Z,6.84
2019-01-05T09:09:28.424Z,6.84
2019-01-05T09:10:28.416Z,6.88
2019-01-05T09:11:28.402Z,6.79
2019-01-05T09:12:28.396Z,6.85
2019-01-05T09:13:28.384Z,6.84
2019-01-05T09:14:28.373Z,6.92
2019-01-05T09:15:28.360Z,6.97
2019-01-05T09:16:28.352Z,6.93
2019-01-05T09:17:28.422Z,6.95
2019-01-05T09:18:28.330Z,6.92
2019-01-05T09:19:28.323Z,6.99
2019-01-05T09:20:28.307Z,7.02
2019-01-05T09:21:28.299Z,6.96
2019-01-05T09:22:28.287Z,6.99
2019-01-05T09:23:28.276Z,6.97
2019-01-05T09:24:28.264Z,7.06
2019-01-05T09:25:28.267Z,7.00
2019-01-05T09:26:28.243Z,6.99
2019-01-05T09:27:28.237Z,7.05
2019-01-05T09:28:28.227Z,6.99
2019-01-05T09:29:28.212Z,7.00
2019-01-05T09:30:28.208Z,7.03
2019-01-05T09:31:28.194Z,6.97
2019-01-05T09:32:28.180Z,7.03
2019-01-05T09:33:28.172Z,7.02
2019-01-05T09:34:28.158Z,7.03
2019-01-05T09:35:28.145Z,7.00
2019-01-05T09:36:28.577Z,7.02
2019-01-05T09:37:28.194Z,6.97
2019-01-05T09:38:28.161Z,7.02
2019-01-05T09:39:28.101Z,7.00
2019-01-05T09:40:28.094Z,6.96
2019-01-05T09:41:28.082Z,6.95
2019-01-05T09:42:28.069Z,6.95
2019-01-05T09:43:28.060Z,7.02
2019-01-05T09:44:28.099Z,6.99
2019-01-05T09:45:28.039Z,6.97
2019-01-05T09:46:28.027Z,7.06
2019-01-05T09:47:28.017Z,7.13
2019-01-05T09:48:28.007Z,7.23
2019-01-05T09:49:27.995Z,7.15
2019-01-05T09:50:27.987Z,7.20
2019-01-05T09:51:27.974Z,7.17
2019-01-05T09:52:27.965Z,7.13
2019-01-05T09:53:27.969Z,7.17
2019-01-05T09:54:27.963Z,7.21
2019-01-05T09:55:27.932Z,7.21
2019-01-05T09:56:27.924Z,7.23
2019-01-05T09:57:27.912Z,7.25
2019-01-05T09:58:27.900Z,7.25
2019-01-05T09:59:27.891Z,7.32
2019-01-05T10:00:27.879Z,7.33
2019-01-05T10:01:27.872Z,7.28
2019-01-05T10:02:27.856Z,7.24
2019-01-05T10:03:27.847Z,7.25
2019-01-05T10:04:27.836Z,7.24
2019-01-05T10:05:27.823Z,7.24
2019-01-05T10:06:27.819Z,7.17
2019-01-05T10:07:27.807Z,7.28
2019-01-05T10:08:27.793Z,7.13
2019-01-05T10:09:27.781Z,7.10
2019-01-05T10:10:27.781Z,7.10
2019-01-05T10:11:27.763Z,7.11
2019-01-05T10:12:27.749Z,7.20
2019-01-05T10:13:27.741Z,7.17
2019-01-05T10:14:27.731Z,7.18
2019-01-05T10:15:27.719Z,7.24
2019-01-05T10:16:27.709Z,7.24
2019-01-05T10:17:27.696Z,7.24
2019-01-05T10:18:27.698Z,7.24
2019-01-05T10:19:27.676Z,7.20
2019-01-05T10:20:27.667Z,7.31
2019-01-05T10:21:27.660Z,7.31
2019-01-05T10:22:27.644Z,7.33
2019-01-05T10:23:27.634Z,7.40
2019-01-05T10:24:27.630Z,7.32
2019-01-05T10:25:27.619Z,7.32
2019-01-05T10:26:27.613Z,7.31
2019-01-05T10:27:27.590Z,7.32
2019-01-05T10:28:27.579Z,7.28
2019-01-05T10:29:27.568Z,7.29
2019-01-05T10:30:27.561Z,7.39
2019-01-05T10:31:27.550Z,7.31
2019-01-05T10:32:27.537Z,7.32
2019-01-05T10:33:27.529Z,7.35
2019-01-05T10:34:27.516Z,7.39
2019-01-05T10:35:27.507Z,7.36
2019-01-05T10:36:27.494Z,7.38
2019-01-05T10:37:27.487Z,7.29
2019-01-05T10:38:27.473Z,7.32
2019-01-05T10:39:27.465Z,7.28
2019-01-05T10:40:27.450Z,7.21
2019-01-05T10:41:27.442Z,7.31
2019-01-05T10:42:27.429Z,7.29
2019-01-05T10:43:27.420Z,7.25
2019-01-05T10:44:27.407Z,7.28
2019-01-05T10:45:27.398Z,7.25
2019-01-05T10:46:27.387Z,7.17
2019-01-05T10:47:27.375Z,7.20
2019-01-05T10:48:27.365Z,7.21
2019-01-05T10:49:27.354Z,7.28
2019-01-05T10:50:27.344Z,7.20
2019-01-05T10:51:27.333Z,7.21
2019-01-05T10:52:27.322Z,7.25
2019-01-05T10:53:27.313Z,7.25
2019-01-05T10:54:27.303Z,7.25
2019-01-05T10:55:27.292Z,7.23
2019-01-05T10:56:27.285Z,7.31
2019-01-05T10:57:27.272Z,7.29
2019-01-05T10:58:27.260Z,7.29
2019-01-05T10:59:27.255Z,7.33
2019-01-05T11:00:27.243Z,7.21
2019-01-05T11:01:27.231Z,7.23
2019-01-05T11:02:27.217Z,7.23
2019-01-05T11:03:27.210Z,7.29
2019-01-05T11:04:27.202Z,7.28
2019-01-05T11:05:27.189Z,7.33
2019-01-05T11:06:27.175Z,7.31
2019-01-05T11:07:27.165Z,7.29
2019-01-05T11:08:27.156Z,7.32
2019-01-05T11:09:27.147Z,7.32
2019-01-05T11:10:27.133Z,7.31
2019-01-05T11:11:27.123Z,7.31
2019-01-05T11:12:27.111Z,7.29
2019-01-05T11:13:27.105Z,7.35
2019-01-05T11:14:27.089Z,7.33
2019-01-05T11:15:27.087Z,7.31
2019-01-05T11:16:27.076Z,7.33
2019-01-05T11:17:27.067Z,7.36
2019-01-05T11:18:27.047Z,7.39
2019-01-05T11:19:27.042Z,7.43
2019-01-05T11:20:27.025Z,7.43
2019-01-05T11:21:27.020Z,7.38
2019-01-05T11:22:27.005Z,7.54
2019-01-05T11:23:26.992Z,7.39
2019-01-05T11:24:26.985Z,7.50
2019-01-05T11:25:26.980Z,7.45
2019-01-05T11:26:26.962Z,7.47
2019-01-05T11:27:26.950Z,7.50
2019-01-05T11:28:26.950Z,7.48
2019-01-05T11:29:26.931Z,7.42
2019-01-05T11:30:26.917Z,7.53
2019-01-05T11:31:26.913Z,7.51
2019-01-05T11:32:26.898Z,7.45
2019-01-05T11:33:26.887Z,7.51
2019-01-05T11:34:26.874Z,7.47
2019-01-05T11:35:26.875Z,7.42
2019-01-05T11:36:26.861Z,7.48
2019-01-05T11:37:26.846Z,7.54
2019-01-05T11:38:26.833Z,7.40
2019-01-05T11:39:26.833Z,7.43
2019-01-05T11:40:26.817Z,7.40
2019-01-05T11:41:26.801Z,7.48
2019-01-05T11:42:26.791Z,7.51
2019-01-05T11:43:27.378Z,7.51
2019-01-05T11:44:26.773Z,7.42
2019-01-05T11:45:26.762Z,7.42
2019-01-05T11:46:26.759Z,7.43
2019-01-05T11:47:26.758Z,7.47
2019-01-05T11:48:26.730Z,7.40
2019-01-05T11:49:26.717Z,7.40
2019-01-05T11:50:26.719Z,7.42
2019-01-05T11:51:26.695Z,7.40
2019-01-05T11:52:26.692Z,7.47
2019-01-05T11:53:26.682Z,7.43
2019-01-05T11:54:26.662Z,7.42
2019-01-05T11:55:26.649Z,7.43
2019-01-05T11:56:26.657Z,7.42
2019-01-05T11:57:26.672Z,7.43
2019-01-05T11:58:26.630Z,7.42
2019-01-05T11:59:26.608Z,7.45
2019-01-05T12:00:26.604Z,7.47
2019-01-05T12:01:26.585Z,7.42
2019-01-05T12:02:26.597Z,7.36
2019-01-05T12:03:26.565Z,7.36
2019-01-05T12:04:26.565Z,7.38
2019-01-05T12:05:26.547Z,7.39
2019-01-05T12:06:26.548Z,7.40
2019-01-05T12:07:26.526Z,7.40
2019-01-05T12:08:26.541Z,7.42
2019-01-05T12:09:26.504Z,7.45
2019-01-05T12:10:26.497Z,7.38
2019-01-05T12:11:26.482Z,7.47
2019-01-05T12:12:26.471Z,7.48
2019-01-05T12:13:26.461Z,7.33
2019-01-05T12:14:26.448Z,7.45
2019-01-05T12:15:26.448Z,7.36
2019-01-05T12:16:26.446Z,7.31
2019-01-05T12:17:26.429Z,7.32
2019-01-05T12:18:26.418Z,7.39
2019-01-05T12:19:26.411Z,7.36
2019-01-05T12:20:26.394Z,7.39
2019-01-05T12:21:26.383Z,7.38
2019-01-05T12:22:26.392Z,7.43
2019-01-05T12:23:26.361Z,7.40
2019-01-05T12:24:26.362Z,7.43
2019-01-05T12:25:26.341Z,7.40
2019-01-05T12:26:26.331Z,7.39
2019-01-05T12:27:26.318Z,7.43
2019-01-05T12:28:26.299Z,7.40
2019-01-05T12:29:26.294Z,7.45
2019-01-05T12:30:26.288Z,7.43
2019-01-05T12:31:26.276Z,7.38
2019-01-05T12:32:26.263Z,7.36
2019-01-05T12:33:26.252Z,7.45
2019-01-05T12:34:26.240Z,7.47
2019-01-05T12:35:26.227Z,7.51
2019-01-05T12:36:26.218Z,7.53
2019-01-05T12:37:26.209Z,7.54
2019-01-05T12:38:26.199Z,7.58
2019-01-05T12:39:26.186Z,7.54
2019-01-05T12:40:26.179Z,7.57
2019-01-05T12:41:26.164Z,7.72
2019-01-05T12:42:26.155Z,7.69
2019-01-05T12:43:26.143Z,7.66
2019-01-05T12:44:26.136Z,7.75
2019-01-05T12:45:26.122Z,7.76
2019-01-05T12:46:26.107Z,7.76
2019-01-05T12:47:26.102Z,7.75
2019-01-05T12:48:26.084Z,7.63
2019-01-05T12:49:26.081Z,7.77
2019-01-05T12:50:26.066Z,7.75
2019-01-05T12:51:26.052Z,7.91
2019-01-05T12:52:26.043Z,7.94
2019-01-05T12:53:26.033Z,7.97
2019-01-05T12:54:26.022Z,7.91
2019-01-05T12:55:26.010Z,8.03
2019-01-05T12:56:26.002Z,7.88
2019-01-05T12:57:25.994Z,8.00
2019-01-05T12:58:25.988Z,7.80
2019-01-05T12:59:25.972Z,7.85
2019-01-05T13:00:25.971Z,7.82
2019-01-05T13:01:25.946Z,7.79
2019-01-05T13:02:25.937Z,7.77
2019-01-05T13:03:25.931Z,7.87
2019-01-05T13:04:25.925Z,7.83
2019-01-05T13:05:25.916Z,7.83
2019-01-05T13:06:25.892Z,7.90
2019-01-05T13:07:25.885Z,7.91
2019-01-05T13:08:25.873Z,7.87
2019-01-05T13:09:25.867Z,7.85
2019-01-05T13:10:25.852Z,7.82
2019-01-05T13:11:25.847Z,7.87
2019-01-05T13:12:25.842Z,7.88
2019-01-05T13:13:25.819Z,7.80
2019-01-05T13:14:25.808Z,7.77
2019-01-05T13:15:25.798Z,7.69
2019-01-05T13:16:25.795Z,7.75
2019-01-05T13:17:25.787Z,7.69
2019-01-05T13:18:25.765Z,7.70